sensor_id;sensor_type;location;lat;lon;timestamp;P1;durP1;ratioP1;P2;durP2;ratioP2
56537;SDS011;42435;53.292;6.000;2022-08-01T00:01:57;3.58;;;1.77;;
56537;SDS011;42435;53.292;6.000;2022-08-01T00:04:23;2.63;;;1.58;;
56537;SDS011;42435;53.292;6.000;2022-08-01T00:06:48;3.03;;;1.63;;
56537;SDS011;42435;53.292;6.000;2022-08-01T00:09:14;4.15;;;2.00;;
56537;SDS011;42435;53.292;6.000;2022-08-01T00:11:39;3.60;;;1.88;;
56537;SDS011;42435;53.292;6.000;2022-08-01T00:14:06;4.88;;;2.47;;
56537;SDS011;42435;53.292;6.000;2022-08-01T00:16:34;5.43;;;2.20;;
56537;SDS011;42435;53.292;6.000;2022-08-01T00:19:03;6.63;;;2.17;;
56537;SDS011;42435;53.292;6.000;2022-08-01T00:21:28;3.30;;;2.15;;
56537;SDS011;42435;53.292;6.000;2022-08-01T00:23:54;5.20;;;2.25;;
56537;SDS011;42435;53.292;6.000;2022-08-01T00:26:19;4.57;;;1.60;;
56537;SDS011;42435;53.292;6.000;2022-08-01T00:28:45;4.53;;;1.70;;
56537;SDS011;42435;53.292;6.000;2022-08-01T00:31:11;4.47;;;2.28;;
56537;SDS011;42435;53.292;6.000;2022-08-01T00:33:36;2.58;;;1.30;;
56537;SDS011;42435;53.292;6.000;2022-08-01T00:36:02;2.85;;;1.38;;
56537;SDS011;42435;53.292;6.000;2022-08-01T00:38:28;3.40;;;1.10;;
56537;SDS011;42435;53.292;6.000;2022-08-01T00:40:53;2.38;;;1.00;;
56537;SDS011;42435;53.292;6.000;2022-08-01T00:43:19;4.18;;;1.40;;
56537;SDS011;42435;53.292;6.000;2022-08-01T00:45:44;3.33;;;0.98;;
56537;SDS011;42435;53.292;6.000;2022-08-01T00:48:10;2.53;;;1.27;;
56537;SDS011;42435;53.292;6.000;2022-08-01T00:50:36;1.27;;;1.05;;
56537;SDS011;42435;53.292;6.000;2022-08-01T00:53:03;2.08;;;1.10;;
56537;SDS011;42435;53.292;6.000;2022-08-01T00:55:29;9.57;;;1.30;;
56537;SDS011;42435;53.292;6.000;2022-08-01T00:57:57;1.45;;;0.85;;
56537;SDS011;42435;53.292;6.000;2022-08-01T01:00:23;1.85;;;0.85;;
56537;SDS011;42435;53.292;6.000;2022-08-01T01:02:50;2.92;;;0.85;;
56537;SDS011;42435;53.292;6.000;2022-08-01T01:05:16;1.95;;;1.00;;
56537;SDS011;42435;53.292;6.000;2022-08-01T01:10:54;2.67;;;1.63;;
56537;SDS011;42435;53.292;6.000;2022-08-01T01:16:34;1.02;;;0.80;;
56537;SDS011;42435;53.292;6.000;2022-08-01T01:19:05;1.42;;;1.13;;
56537;SDS011;42435;53.292;6.000;2022-08-01T01:21:55;1.63;;;1.40;;
56537;SDS011;42435;53.292;6.000;2022-08-01T01:27:45;4.50;;;1.48;;
56537;SDS011;42435;53.292;6.000;2022-08-01T01:30:18;3.97;;;1.48;;
56537;SDS011;42435;53.292;6.000;2022-08-01T01:32:45;6.43;;;1.67;;
56537;SDS011;42435;53.292;6.000;2022-08-01T01:35:22;3.95;;;1.60;;
56537;SDS011;42435;53.292;6.000;2022-08-01T01:37:54;5.15;;;1.55;;
56537;SDS011;42435;53.292;6.000;2022-08-01T01:40:25;6.45;;;1.95;;
56537;SDS011;42435;53.292;6.000;2022-08-01T01:42:52;4.18;;;2.28;;
56537;SDS011;42435;53.292;6.000;2022-08-01T01:45:20;6.10;;;2.13;;
56537;SDS011;42435;53.292;6.000;2022-08-01T01:47:48;3.70;;;1.70;;
56537;SDS011;42435;53.292;6.000;2022-08-01T01:50:20;6.05;;;1.80;;
56537;SDS011;42435;53.292;6.000;2022-08-01T01:52:47;4.50;;;1.75;;
56537;SDS011;42435;53.292;6.000;2022-08-01T01:55:13;5.63;;;1.88;;
56537;SDS011;42435;53.292;6.000;2022-08-01T01:57:41;5.43;;;2.20;;
56537;SDS011;42435;53.292;6.000;2022-08-01T02:00:10;4.10;;;2.50;;
56537;SDS011;42435;53.292;6.000;2022-08-01T02:02:38;5.25;;;3.63;;
56537;SDS011;42435;53.292;6.000;2022-08-01T02:05:06;20.88;;;16.17;;
56537;SDS011;42435;53.292;6.000;2022-08-01T02:07:34;37.40;;;31.05;;
56537;SDS011;42435;53.292;6.000;2022-08-01T02:10:02;31.25;;;21.60;;
56537;SDS011;42435;53.292;6.000;2022-08-01T02:12:29;24.27;;;17.10;;
56537;SDS011;42435;53.292;6.000;2022-08-01T02:15:00;28.25;;;19.25;;
56537;SDS011;42435;53.292;6.000;2022-08-01T02:17:28;25.92;;;18.42;;
56537;SDS011;42435;53.292;6.000;2022-08-01T02:19:55;41.70;;;31.13;;
56537;SDS011;42435;53.292;6.000;2022-08-01T02:22:36;78.93;;;56.15;;
56537;SDS011;42435;53.292;6.000;2022-08-01T02:25:11;89.18;;;57.00;;
56537;SDS011;42435;53.292;6.000;2022-08-01T02:30:46;60.78;;;40.67;;
56537;SDS011;42435;53.292;6.000;2022-08-01T02:33:20;67.03;;;47.88;;
56537;SDS011;42435;53.292;6.000;2022-08-01T02:35:53;75.35;;;49.85;;
56537;SDS011;42435;53.292;6.000;2022-08-01T02:38:23;61.75;;;38.13;;
56537;SDS011;42435;53.292;6.000;2022-08-01T02:40:52;46.10;;;29.13;;
56537;SDS011;42435;53.292;6.000;2022-08-01T02:43:21;37.58;;;18.30;;
56537;SDS011;42435;53.292;6.000;2022-08-01T02:45:52;35.03;;;15.40;;
56537;SDS011;42435;53.292;6.000;2022-08-01T02:48:21;31.95;;;13.07;;
56537;SDS011;42435;53.292;6.000;2022-08-01T02:50:50;125.07;;;41.55;;
56537;SDS011;42435;53.292;6.000;2022-08-01T02:53:18;101.03;;;32.45;;
56537;SDS011;42435;53.292;6.000;2022-08-01T02:55:46;265.75;;;80.78;;
56537;SDS011;42435;53.292;6.000;2022-08-01T02:58:16;312.02;;;103.70;;
56537;SDS011;42435;53.292;6.000;2022-08-01T03:00:45;295.55;;;99.22;;
56537;SDS011;42435;53.292;6.000;2022-08-01T03:03:12;294.88;;;109.03;;
56537;SDS011;42435;53.292;6.000;2022-08-01T03:05:43;185.20;;;68.82;;
56537;SDS011;42435;53.292;6.000;2022-08-01T03:08:09;109.60;;;41.70;;
56537;SDS011;42435;53.292;6.000;2022-08-01T03:10:38;76.10;;;26.95;;
56537;SDS011;42435;53.292;6.000;2022-08-01T03:13:06;58.78;;;17.67;;
56537;SDS011;42435;53.292;6.000;2022-08-01T03:15:34;90.70;;;28.83;;
56537;SDS011;42435;53.292;6.000;2022-08-01T03:18:02;118.40;;;34.97;;
56537;SDS011;42435;53.292;6.000;2022-08-01T03:20:30;207.95;;;70.20;;
56537;SDS011;42435;53.292;6.000;2022-08-01T03:22:59;353.55;;;119.57;;
56537;SDS011;42435;53.292;6.000;2022-08-01T03:25:30;240.05;;;77.32;;
56537;SDS011;42435;53.292;6.000;2022-08-01T03:27:58;141.48;;;51.88;;
56537;SDS011;42435;53.292;6.000;2022-08-01T03:30:27;74.38;;;26.25;;
56537;SDS011;42435;53.292;6.000;2022-08-01T03:32:53;37.42;;;14.73;;
56537;SDS011;42435;53.292;6.000;2022-08-01T03:35:20;35.88;;;14.80;;
56537;SDS011;42435;53.292;6.000;2022-08-01T03:37:49;28.95;;;9.73;;
56537;SDS011;42435;53.292;6.000;2022-08-01T03:40:25;41.50;;;10.68;;
56537;SDS011;42435;53.292;6.000;2022-08-01T03:43:00;24.50;;;8.02;;
56537;SDS011;42435;53.292;6.000;2022-08-01T03:45:31;15.63;;;6.00;;
56537;SDS011;42435;53.292;6.000;2022-08-01T03:48:08;13.90;;;4.50;;
56537;SDS011;42435;53.292;6.000;2022-08-01T03:50:41;15.57;;;4.60;;
56537;SDS011;42435;53.292;6.000;2022-08-01T03:53:10;8.00;;;2.70;;
56537;SDS011;42435;53.292;6.000;2022-08-01T03:55:41;7.43;;;2.60;;
56537;SDS011;42435;53.292;6.000;2022-08-01T03:58:09;6.75;;;2.00;;
56537;SDS011;42435;53.292;6.000;2022-08-01T04:00:36;11.95;;;2.28;;
56537;SDS011;42435;53.292;6.000;2022-08-01T04:03:04;8.45;;;2.45;;
56537;SDS011;42435;53.292;6.000;2022-08-01T04:05:31;9.98;;;2.83;;
56537;SDS011;42435;53.292;6.000;2022-08-01T04:08:00;9.20;;;2.70;;
56537;SDS011;42435;53.292;6.000;2022-08-01T04:10:28;10.23;;;3.05;;
56537;SDS011;42435;53.292;6.000;2022-08-01T04:12:54;7.43;;;2.75;;
56537;SDS011;42435;53.292;6.000;2022-08-01T04:15:20;11.85;;;3.83;;
56537;SDS011;42435;53.292;6.000;2022-08-01T04:17:46;10.60;;;2.28;;
56537;SDS011;42435;53.292;6.000;2022-08-01T04:20:12;3.72;;;1.60;;
56537;SDS011;42435;53.292;6.000;2022-08-01T04:22:38;7.20;;;1.77;;
56537;SDS011;42435;53.292;6.000;2022-08-01T04:25:05;7.40;;;1.77;;
56537;SDS011;42435;53.292;6.000;2022-08-01T04:27:36;12.98;;;2.60;;
56537;SDS011;42435;53.292;6.000;2022-08-01T04:30:08;6.75;;;2.08;;
56537;SDS011;42435;53.292;6.000;2022-08-01T04:32:35;9.93;;;2.85;;
56537;SDS011;42435;53.292;6.000;2022-08-01T04:35:04;8.18;;;2.70;;
56537;SDS011;42435;53.292;6.000;2022-08-01T04:37:34;8.95;;;2.47;;
56537;SDS011;42435;53.292;6.000;2022-08-01T04:40:03;11.57;;;3.58;;
56537;SDS011;42435;53.292;6.000;2022-08-01T04:42:31;12.65;;;2.45;;
56537;SDS011;42435;53.292;6.000;2022-08-01T04:44:58;13.25;;;2.42;;
56537;SDS011;42435;53.292;6.000;2022-08-01T04:47:27;6.65;;;2.20;;
56537;SDS011;42435;53.292;6.000;2022-08-01T04:49:54;4.90;;;1.58;;
56537;SDS011;42435;53.292;6.000;2022-08-01T04:52:21;6.75;;;2.33;;
56537;SDS011;42435;53.292;6.000;2022-08-01T04:54:47;5.00;;;2.15;;
56537;SDS011;42435;53.292;6.000;2022-08-01T04:57:15;5.97;;;2.35;;
56537;SDS011;42435;53.292;6.000;2022-08-01T04:59:44;7.15;;;1.58;;
56537;SDS011;42435;53.292;6.000;2022-08-01T05:02:15;9.43;;;2.33;;
56537;SDS011;42435;53.292;6.000;2022-08-01T05:04:43;8.43;;;2.60;;
56537;SDS011;42435;53.292;6.000;2022-08-01T05:07:10;6.30;;;2.33;;
56537;SDS011;42435;53.292;6.000;2022-08-01T05:09:36;8.00;;;2.33;;
56537;SDS011;42435;53.292;6.000;2022-08-01T05:12:04;9.15;;;1.70;;
56537;SDS011;42435;53.292;6.000;2022-08-01T05:14:30;5.82;;;2.03;;
56537;SDS011;42435;53.292;6.000;2022-08-01T05:17:07;9.48;;;2.80;;
56537;SDS011;42435;53.292;6.000;2022-08-01T05:19:33;7.78;;;1.75;;
56537;SDS011;42435;53.292;6.000;2022-08-01T05:22:00;9.57;;;2.33;;
56537;SDS011;42435;53.292;6.000;2022-08-01T05:24:29;10.20;;;1.88;;
56537;SDS011;42435;53.292;6.000;2022-08-01T05:26:56;12.95;;;2.65;;
56537;SDS011;42435;53.292;6.000;2022-08-01T05:29:22;11.02;;;2.40;;
56537;SDS011;42435;53.292;6.000;2022-08-01T05:31:48;7.00;;;1.85;;
56537;SDS011;42435;53.292;6.000;2022-08-01T05:34:14;7.65;;;2.38;;
56537;SDS011;42435;53.292;6.000;2022-08-01T05:36:40;8.05;;;2.88;;
56537;SDS011;42435;53.292;6.000;2022-08-01T05:39:05;11.05;;;2.97;;
56537;SDS011;42435;53.292;6.000;2022-08-01T05:41:31;7.10;;;2.13;;
56537;SDS011;42435;53.292;6.000;2022-08-01T05:43:57;10.88;;;2.35;;
56537;SDS011;42435;53.292;6.000;2022-08-01T05:46:22;7.10;;;1.80;;
56537;SDS011;42435;53.292;6.000;2022-08-01T05:48:48;8.65;;;2.63;;
56537;SDS011;42435;53.292;6.000;2022-08-01T05:51:13;11.90;;;2.72;;
56537;SDS011;42435;53.292;6.000;2022-08-01T05:53:39;11.15;;;1.92;;
56537;SDS011;42435;53.292;6.000;2022-08-01T05:56:05;9.07;;;2.13;;
56537;SDS011;42435;53.292;6.000;2022-08-01T05:58:30;6.30;;;1.73;;
56537;SDS011;42435;53.292;6.000;2022-08-01T06:00:57;7.28;;;2.55;;
56537;SDS011;42435;53.292;6.000;2022-08-01T06:03:25;7.10;;;2.00;;
56537;SDS011;42435;53.292;6.000;2022-08-01T06:05:59;6.80;;;2.17;;
56537;SDS011;42435;53.292;6.000;2022-08-01T06:08:25;7.65;;;1.88;;
56537;SDS011;42435;53.292;6.000;2022-08-01T06:10:53;5.47;;;1.80;;
56537;SDS011;42435;53.292;6.000;2022-08-01T06:13:19;15.38;;;2.10;;
56537;SDS011;42435;53.292;6.000;2022-08-01T06:15:44;12.95;;;2.70;;
56537;SDS011;42435;53.292;6.000;2022-08-01T06:18:13;6.30;;;1.80;;
56537;SDS011;42435;53.292;6.000;2022-08-01T06:20:39;8.02;;;2.28;;
56537;SDS011;42435;53.292;6.000;2022-08-01T06:23:05;8.48;;;3.00;;
56537;SDS011;42435;53.292;6.000;2022-08-01T06:25:30;5.57;;;1.70;;
56537;SDS011;42435;53.292;6.000;2022-08-01T06:27:56;14.02;;;2.50;;
56537;SDS011;42435;53.292;6.000;2022-08-01T06:30:22;9.55;;;1.95;;
56537;SDS011;42435;53.292;6.000;2022-08-01T06:32:47;7.05;;;2.22;;
56537;SDS011;42435;53.292;6.000;2022-08-01T06:35:14;4.75;;;1.30;;
56537;SDS011;42435;53.292;6.000;2022-08-01T06:37:40;4.75;;;1.50;;
56537;SDS011;42435;53.292;6.000;2022-08-01T06:40:09;7.38;;;2.28;;
56537;SDS011;42435;53.292;6.000;2022-08-01T06:42:41;7.93;;;1.48;;
56537;SDS011;42435;53.292;6.000;2022-08-01T06:45:12;6.35;;;2.20;;
56537;SDS011;42435;53.292;6.000;2022-08-01T06:47:38;14.73;;;2.28;;
56537;SDS011;42435;53.292;6.000;2022-08-01T06:50:08;4.22;;;1.80;;
56537;SDS011;42435;53.292;6.000;2022-08-01T06:52:40;7.72;;;2.33;;
56537;SDS011;42435;53.292;6.000;2022-08-01T06:55:13;7.28;;;2.03;;
56537;SDS011;42435;53.292;6.000;2022-08-01T06:57:49;5.45;;;1.45;;
56537;SDS011;42435;53.292;6.000;2022-08-01T07:00:22;7.00;;;2.10;;
56537;SDS011;42435;53.292;6.000;2022-08-01T07:05:42;5.53;;;1.73;;
56537;SDS011;42435;53.292;6.000;2022-08-01T07:08:26;5.50;;;1.48;;
56537;SDS011;42435;53.292;6.000;2022-08-01T07:11:26;5.00;;;1.75;;
56537;SDS011;42435;53.292;6.000;2022-08-01T07:14:03;4.88;;;1.17;;
56537;SDS011;42435;53.292;6.000;2022-08-01T07:16:37;6.63;;;1.50;;
56537;SDS011;42435;53.292;6.000;2022-08-01T07:19:03;5.95;;;1.60;;
56537;SDS011;42435;53.292;6.000;2022-08-01T07:21:28;3.92;;;1.13;;
56537;SDS011;42435;53.292;6.000;2022-08-01T07:23:57;4.88;;;1.40;;
56537;SDS011;42435;53.292;6.000;2022-08-01T07:26:22;3.85;;;1.45;;
56537;SDS011;42435;53.292;6.000;2022-08-01T07:28:48;5.43;;;1.75;;
56537;SDS011;42435;53.292;6.000;2022-08-01T07:31:13;10.48;;;1.92;;
56537;SDS011;42435;53.292;6.000;2022-08-01T07:33:39;4.07;;;1.50;;
56537;SDS011;42435;53.292;6.000;2022-08-01T07:36:04;7.13;;;2.13;;
56537;SDS011;42435;53.292;6.000;2022-08-01T07:38:30;6.82;;;1.75;;
56537;SDS011;42435;53.292;6.000;2022-08-01T07:40:56;6.00;;;1.25;;
56537;SDS011;42435;53.292;6.000;2022-08-01T07:43:21;4.20;;;1.55;;
56537;SDS011;42435;53.292;6.000;2022-08-01T07:45:47;7.07;;;1.52;;
56537;SDS011;42435;53.292;6.000;2022-08-01T07:48:15;7.10;;;1.73;;
56537;SDS011;42435;53.292;6.000;2022-08-01T07:50:50;6.03;;;1.48;;
56537;SDS011;42435;53.292;6.000;2022-08-01T07:53:22;3.63;;;1.00;;
56537;SDS011;42435;53.292;6.000;2022-08-01T07:55:50;7.72;;;1.67;;
56537;SDS011;42435;53.292;6.000;2022-08-01T07:58:16;7.32;;;1.95;;
56537;SDS011;42435;53.292;6.000;2022-08-01T08:00:44;9.15;;;1.58;;
56537;SDS011;42435;53.292;6.000;2022-08-01T08:03:12;7.00;;;1.60;;
56537;SDS011;42435;53.292;6.000;2022-08-01T08:05:37;6.97;;;1.10;;
56537;SDS011;42435;53.292;6.000;2022-08-01T08:08:07;6.93;;;1.30;;
56537;SDS011;42435;53.292;6.000;2022-08-01T08:10:33;6.05;;;1.65;;
56537;SDS011;42435;53.292;6.000;2022-08-01T08:13:01;4.20;;;1.45;;
56537;SDS011;42435;53.292;6.000;2022-08-01T08:15:27;5.63;;;1.15;;
56537;SDS011;42435;53.292;6.000;2022-08-01T08:17:53;7.50;;;1.17;;
56537;SDS011;42435;53.292;6.000;2022-08-01T08:20:19;6.10;;;1.80;;
56537;SDS011;42435;53.292;6.000;2022-08-01T08:22:52;6.45;;;1.80;;
56537;SDS011;42435;53.292;6.000;2022-08-01T08:25:19;5.60;;;1.38;;
56537;SDS011;42435;53.292;6.000;2022-08-01T08:27:48;5.78;;;1.70;;
56537;SDS011;42435;53.292;6.000;2022-08-01T08:30:13;4.95;;;1.20;;
56537;SDS011;42435;53.292;6.000;2022-08-01T08:32:42;4.72;;;0.88;;
56537;SDS011;42435;53.292;6.000;2022-08-01T08:35:08;5.43;;;1.35;;
56537;SDS011;42435;53.292;6.000;2022-08-01T08:37:35;4.25;;;1.20;;
56537;SDS011;42435;53.292;6.000;2022-08-01T08:40:01;7.97;;;0.98;;
56537;SDS011;42435;53.292;6.000;2022-08-01T08:42:28;5.05;;;1.20;;
56537;SDS011;42435;53.292;6.000;2022-08-01T08:44:57;5.97;;;1.17;;
56537;SDS011;42435;53.292;6.000;2022-08-01T08:47:23;6.18;;;1.52;;
56537;SDS011;42435;53.292;6.000;2022-08-01T08:49:53;4.57;;;1.25;;
56537;SDS011;42435;53.292;6.000;2022-08-01T08:52:20;3.97;;;0.90;;
56537;SDS011;42435;53.292;6.000;2022-08-01T08:54:47;5.55;;;1.00;;
56537;SDS011;42435;53.292;6.000;2022-08-01T08:57:14;8.40;;;1.48;;
56537;SDS011;42435;53.292;6.000;2022-08-01T08:59:42;7.40;;;2.10;;
56537;SDS011;42435;53.292;6.000;2022-08-01T09:02:15;6.07;;;1.25;;
56537;SDS011;42435;53.292;6.000;2022-08-01T09:04:40;8.05;;;1.20;;
56537;SDS011;42435;53.292;6.000;2022-08-01T09:07:09;4.80;;;1.20;;
56537;SDS011;42435;53.292;6.000;2022-08-01T09:09:41;4.18;;;1.05;;
56537;SDS011;42435;53.292;6.000;2022-08-01T09:12:08;3.58;;;1.00;;
56537;SDS011;42435;53.292;6.000;2022-08-01T09:14:44;4.20;;;0.95;;
56537;SDS011;42435;53.292;6.000;2022-08-01T09:17:24;8.48;;;1.08;;
56537;SDS011;42435;53.292;6.000;2022-08-01T09:19:51;5.95;;;1.38;;
56537;SDS011;42435;53.292;6.000;2022-08-01T09:22:19;4.38;;;1.00;;
56537;SDS011;42435;53.292;6.000;2022-08-01T09:27:24;6.63;;;1.02;;
56537;SDS011;42435;53.292;6.000;2022-08-01T09:29:54;4.88;;;0.80;;
56537;SDS011;42435;53.292;6.000;2022-08-01T09:32:22;5.65;;;1.23;;
56537;SDS011;42435;53.292;6.000;2022-08-01T09:34:48;5.38;;;1.20;;
56537;SDS011;42435;53.292;6.000;2022-08-01T09:37:13;4.60;;;0.85;;
56537;SDS011;42435;53.292;6.000;2022-08-01T09:39:48;2.83;;;0.80;;
56537;SDS011;42435;53.292;6.000;2022-08-01T09:42:31;3.38;;;0.77;;
56537;SDS011;42435;53.292;6.000;2022-08-01T09:44:59;2.55;;;0.73;;
56537;SDS011;42435;53.292;6.000;2022-08-01T09:47:36;5.07;;;0.93;;
56537;SDS011;42435;53.292;6.000;2022-08-01T09:50:05;3.88;;;0.70;;
56537;SDS011;42435;53.292;6.000;2022-08-01T09:52:34;3.58;;;1.13;;
56537;SDS011;42435;53.292;6.000;2022-08-01T09:55:01;5.38;;;1.02;;
56537;SDS011;42435;53.292;6.000;2022-08-01T09:57:29;5.35;;;1.15;;
56537;SDS011;42435;53.292;6.000;2022-08-01T09:59:55;3.70;;;0.77;;
56537;SDS011;42435;53.292;6.000;2022-08-01T10:02:30;5.63;;;0.77;;
56537;SDS011;42435;53.292;6.000;2022-08-01T10:04:59;3.30;;;0.97;;
56537;SDS011;42435;53.292;6.000;2022-08-01T10:07:29;2.92;;;0.75;;
56537;SDS011;42435;53.292;6.000;2022-08-01T10:09:54;4.43;;;0.95;;
56537;SDS011;42435;53.292;6.000;2022-08-01T10:12:21;3.88;;;0.93;;
56537;SDS011;42435;53.292;6.000;2022-08-01T10:14:49;2.80;;;0.68;;
56537;SDS011;42435;53.292;6.000;2022-08-01T10:17:17;1.67;;;0.50;;
56537;SDS011;42435;53.292;6.000;2022-08-01T10:19:45;7.63;;;0.98;;
56537;SDS011;42435;53.292;6.000;2022-08-01T10:22:11;2.38;;;0.88;;
56537;SDS011;42435;53.292;6.000;2022-08-01T10:24:43;5.75;;;0.82;;
56537;SDS011;42435;53.292;6.000;2022-08-01T10:27:11;5.72;;;1.48;;
56537;SDS011;42435;53.292;6.000;2022-08-01T10:29:47;3.58;;;0.95;;
56537;SDS011;42435;53.292;6.000;2022-08-01T10:32:19;5.07;;;1.02;;
56537;SDS011;42435;53.292;6.000;2022-08-01T10:34:49;5.50;;;1.25;;
56537;SDS011;42435;53.292;6.000;2022-08-01T10:37:18;4.68;;;1.08;;
56537;SDS011;42435;53.292;6.000;2022-08-01T10:39:44;4.28;;;0.80;;
56537;SDS011;42435;53.292;6.000;2022-08-01T10:42:10;3.90;;;1.05;;
56537;SDS011;42435;53.292;6.000;2022-08-01T10:44:37;5.15;;;0.90;;
56537;SDS011;42435;53.292;6.000;2022-08-01T10:47:04;3.72;;;0.80;;
56537;SDS011;42435;53.292;6.000;2022-08-01T10:49:39;3.00;;;0.90;;
56537;SDS011;42435;53.292;6.000;2022-08-01T10:52:26;2.80;;;0.70;;
56537;SDS011;42435;53.292;6.000;2022-08-01T10:55:05;3.90;;;0.70;;
56537;SDS011;42435;53.292;6.000;2022-08-01T10:57:44;5.05;;;0.90;;
56537;SDS011;42435;53.292;6.000;2022-08-01T11:00:18;5.00;;;1.20;;
56537;SDS011;42435;53.292;6.000;2022-08-01T11:03:01;4.53;;;1.10;;
56537;SDS011;42435;53.292;6.000;2022-08-01T11:05:30;4.45;;;0.65;;
56537;SDS011;42435;53.292;6.000;2022-08-01T11:08:03;3.00;;;0.80;;
56537;SDS011;42435;53.292;6.000;2022-08-01T11:11:02;3.80;;;0.80;;
56537;SDS011;42435;53.292;6.000;2022-08-01T11:16:36;1.70;;;0.68;;
56537;SDS011;42435;53.292;6.000;2022-08-01T11:19:04;2.65;;;0.75;;
56537;SDS011;42435;53.292;6.000;2022-08-01T11:27:18;3.80;;;0.63;;
56537;SDS011;42435;53.292;6.000;2022-08-01T11:32:33;2.83;;;0.73;;
56537;SDS011;42435;53.292;6.000;2022-08-01T11:35:11;6.13;;;0.90;;
56537;SDS011;42435;53.292;6.000;2022-08-01T11:37:37;5.38;;;0.90;;
56537;SDS011;42435;53.292;6.000;2022-08-01T11:40:21;3.67;;;0.95;;
56537;SDS011;42435;53.292;6.000;2022-08-01T11:48:20;5.90;;;0.95;;
56537;SDS011;42435;53.292;6.000;2022-08-01T11:53:17;2.53;;;0.73;;
56537;SDS011;42435;53.292;6.000;2022-08-01T11:55:53;3.45;;;0.63;;
56537;SDS011;42435;53.292;6.000;2022-08-01T11:58:23;3.67;;;0.75;;
56537;SDS011;42435;53.292;6.000;2022-08-01T12:00:54;5.78;;;0.75;;
56537;SDS011;42435;53.292;6.000;2022-08-01T12:03:24;2.53;;;0.70;;
56537;SDS011;42435;53.292;6.000;2022-08-01T12:05:52;3.78;;;1.02;;
56537;SDS011;42435;53.292;6.000;2022-08-01T12:08:27;5.35;;;1.15;;
56537;SDS011;42435;53.292;6.000;2022-08-01T12:10:55;3.22;;;0.80;;
56537;SDS011;42435;53.292;6.000;2022-08-01T12:13:20;3.28;;;0.80;;
56537;SDS011;42435;53.292;6.000;2022-08-01T12:15:47;2.90;;;0.88;;
56537;SDS011;42435;53.292;6.000;2022-08-01T12:18:15;3.78;;;1.15;;
56537;SDS011;42435;53.292;6.000;2022-08-01T12:20:46;1.45;;;0.80;;
56537;SDS011;42435;53.292;6.000;2022-08-01T12:23:13;1.95;;;0.63;;
56537;SDS011;42435;53.292;6.000;2022-08-01T12:25:42;2.83;;;0.90;;
56537;SDS011;42435;53.292;6.000;2022-08-01T12:28:15;1.93;;;0.50;;
56537;SDS011;42435;53.292;6.000;2022-08-01T12:30:42;2.85;;;0.52;;
56537;SDS011;42435;53.292;6.000;2022-08-01T12:33:16;4.60;;;0.80;;
56537;SDS011;42435;53.292;6.000;2022-08-01T12:35:42;2.78;;;0.77;;
56537;SDS011;42435;53.292;6.000;2022-08-01T12:38:18;1.58;;;0.60;;
56537;SDS011;42435;53.292;6.000;2022-08-01T12:40:47;3.03;;;0.82;;
56537;SDS011;42435;53.292;6.000;2022-08-01T12:43:31;1.60;;;0.85;;
56537;SDS011;42435;53.292;6.000;2022-08-01T12:45:59;1.85;;;0.73;;
56537;SDS011;42435;53.292;6.000;2022-08-01T12:48:25;2.38;;;0.60;;
56537;SDS011;42435;53.292;6.000;2022-08-01T12:50:52;5.15;;;0.80;;
56537;SDS011;42435;53.292;6.000;2022-08-01T12:53:22;3.83;;;0.77;;
56537;SDS011;42435;53.292;6.000;2022-08-01T12:55:53;3.58;;;0.70;;
56537;SDS011;42435;53.292;6.000;2022-08-01T12:58:20;2.72;;;0.75;;
56537;SDS011;42435;53.292;6.000;2022-08-01T13:00:47;2.42;;;0.57;;
56537;SDS011;42435;53.292;6.000;2022-08-01T13:03:18;4.32;;;1.08;;
56537;SDS011;42435;53.292;6.000;2022-08-01T13:05:51;4.40;;;0.90;;
56537;SDS011;42435;53.292;6.000;2022-08-01T13:08:24;1.42;;;0.80;;
56537;SDS011;42435;53.292;6.000;2022-08-01T13:11:15;2.70;;;0.50;;
56537;SDS011;42435;53.292;6.000;2022-08-01T13:16:12;3.42;;;1.00;;
56537;SDS011;42435;53.292;6.000;2022-08-01T13:18:38;4.43;;;0.55;;
56537;SDS011;42435;53.292;6.000;2022-08-01T13:21:14;2.60;;;0.68;;
56537;SDS011;42435;53.292;6.000;2022-08-01T13:24:00;1.83;;;0.70;;
56537;SDS011;42435;53.292;6.000;2022-08-01T13:29:08;3.58;;;0.80;;
56537;SDS011;42435;53.292;6.000;2022-08-01T13:31:36;5.68;;;2.00;;
56537;SDS011;42435;53.292;6.000;2022-08-01T13:34:02;5.10;;;1.48;;
56537;SDS011;42435;53.292;6.000;2022-08-01T13:36:28;2.47;;;0.80;;
56537;SDS011;42435;53.292;6.000;2022-08-01T13:38:57;3.10;;;0.77;;
56537;SDS011;42435;53.292;6.000;2022-08-01T13:41:42;3.25;;;1.00;;
56537;SDS011;42435;53.292;6.000;2022-08-01T13:44:09;6.38;;;0.80;;
56537;SDS011;42435;53.292;6.000;2022-08-01T13:46:36;2.05;;;0.80;;
56537;SDS011;42435;53.292;6.000;2022-08-01T13:49:06;3.13;;;0.90;;
56537;SDS011;42435;53.292;6.000;2022-08-01T13:51:33;4.88;;;1.00;;
56537;SDS011;42435;53.292;6.000;2022-08-01T13:53:59;2.40;;;0.57;;
56537;SDS011;42435;53.292;6.000;2022-08-01T13:56:25;2.15;;;0.52;;
56537;SDS011;42435;53.292;6.000;2022-08-01T14:01:21;4.30;;;0.63;;
56537;SDS011;42435;53.292;6.000;2022-08-01T14:03:49;3.13;;;0.70;;
56537;SDS011;42435;53.292;6.000;2022-08-01T14:06:19;1.85;;;0.82;;
56537;SDS011;42435;53.292;6.000;2022-08-01T14:08:49;6.28;;;0.98;;
56537;SDS011;42435;53.292;6.000;2022-08-01T14:11:15;1.65;;;0.60;;
56537;SDS011;42435;53.292;6.000;2022-08-01T14:13:43;3.45;;;1.05;;
56537;SDS011;42435;53.292;6.000;2022-08-01T14:16:09;4.63;;;0.80;;
56537;SDS011;42435;53.292;6.000;2022-08-01T14:18:41;2.28;;;1.08;;
56537;SDS011;42435;53.292;6.000;2022-08-01T14:21:07;6.50;;;1.02;;
56537;SDS011;42435;53.292;6.000;2022-08-01T14:23:32;1.90;;;0.98;;
56537;SDS011;42435;53.292;6.000;2022-08-01T14:25:58;3.90;;;1.10;;
56537;SDS011;42435;53.292;6.000;2022-08-01T14:28:24;2.97;;;0.90;;
56537;SDS011;42435;53.292;6.000;2022-08-01T14:30:57;3.10;;;0.93;;
56537;SDS011;42435;53.292;6.000;2022-08-01T14:33:23;4.13;;;0.90;;
56537;SDS011;42435;53.292;6.000;2022-08-01T14:35:52;1.75;;;0.70;;
56537;SDS011;42435;53.292;6.000;2022-08-01T14:38:17;4.30;;;0.70;;
56537;SDS011;42435;53.292;6.000;2022-08-01T14:40:43;1.88;;;0.80;;
56537;SDS011;42435;53.292;6.000;2022-08-01T14:43:12;2.15;;;0.93;;
56537;SDS011;42435;53.292;6.000;2022-08-01T14:45:38;5.85;;;0.90;;
56537;SDS011;42435;53.292;6.000;2022-08-01T14:48:06;1.88;;;1.00;;
56537;SDS011;42435;53.292;6.000;2022-08-01T14:50:32;7.60;;;1.25;;
56537;SDS011;42435;53.292;6.000;2022-08-01T14:52:57;2.60;;;0.77;;
56537;SDS011;42435;53.292;6.000;2022-08-01T14:55:23;3.42;;;0.98;;
56537;SDS011;42435;53.292;6.000;2022-08-01T14:57:51;2.42;;;0.70;;
56537;SDS011;42435;53.292;6.000;2022-08-01T15:00:16;3.42;;;1.00;;
56537;SDS011;42435;53.292;6.000;2022-08-01T15:02:42;5.07;;;0.73;;
56537;SDS011;42435;53.292;6.000;2022-08-01T15:05:08;2.28;;;0.80;;
56537;SDS011;42435;53.292;6.000;2022-08-01T15:07:35;2.35;;;0.60;;
56537;SDS011;42435;53.292;6.000;2022-08-01T15:10:02;3.90;;;0.80;;
56537;SDS011;42435;53.292;6.000;2022-08-01T15:12:29;4.55;;;0.98;;
56537;SDS011;42435;53.292;6.000;2022-08-01T15:14:55;2.08;;;0.57;;
56537;SDS011;42435;53.292;6.000;2022-08-01T15:17:27;3.83;;;0.88;;
56537;SDS011;42435;53.292;6.000;2022-08-01T15:19:55;4.88;;;1.00;;
56537;SDS011;42435;53.292;6.000;2022-08-01T15:22:22;5.70;;;1.33;;
56537;SDS011;42435;53.292;6.000;2022-08-01T15:24:50;4.85;;;0.93;;
56537;SDS011;42435;53.292;6.000;2022-08-01T15:27:17;5.28;;;0.70;;
56537;SDS011;42435;53.292;6.000;2022-08-01T15:29:43;2.75;;;0.73;;
56537;SDS011;42435;53.292;6.000;2022-08-01T15:32:10;4.20;;;1.00;;
56537;SDS011;42435;53.292;6.000;2022-08-01T15:34:36;2.95;;;1.00;;
56537;SDS011;42435;53.292;6.000;2022-08-01T15:37:03;3.60;;;0.93;;
56537;SDS011;42435;53.292;6.000;2022-08-01T15:39:30;2.85;;;0.90;;